Time;durP1;ratioP1;P1;durP2;ratioP2;P2;SDS_P1;SDS_P2;PMS_P1;PMS_P2;Temp;Humidity;BMP_temperature;BMP_pressure;BME280_temperature;BME280_humidity;BME280_pressure;Samples;Min_cycle;Max_cycle;Signal;HPM_P1;HPM_P2
2023/06/12 00:00:47;;;;;;;5.93;4.20;;;;;;;21.36;43.76;101415.06;5030207;28;20034;-80
2023/06/12 00:03:13;;;;;;;6.10;4.68;;;;;;;21.31;44.59;101411.84;5031481;28;20040;-80
2023/06/12 00:05:45;;;;;;;5.25;4.35;;;;;;;21.27;43.95;101418.28;5030547;28;20025;-80
2023/06/12 00:08:17;;;;;;;6.28;4.50;;;;;;;21.24;43.31;101419.31;5046493;28;20090;-80
2023/06/12 00:10:44;;;;;;;5.35;4.35;;;;;;;21.22;46.32;101410.63;5032138;28;20029;-80
2023/06/12 00:13:10;;;;;;;5.68;4.38;;;;;;;21.18;44.55;101409.13;5032667;28;20416;-80
2023/06/12 00:15:35;;;;;;;5.50;4.40;;;;;;;21.16;44.03;101416.31;5030488;28;20092;-80
2023/06/12 00:18:02;;;;;;;7.78;4.45;;;;;;;21.13;43.41;101411.22;5031973;28;20029;-80
2023/06/12 00:20:28;;;;;;;6.43;4.13;;;;;;;21.10;45.44;101411.38;5030919;28;20025;-80
2023/06/12 00:22:53;;;;;;;7.55;4.60;;;;;;;21.07;43.58;101415.09;5031780;28;20561;-80
2023/06/12 00:25:19;;;;;;;6.72;4.88;;;;;;;21.06;44.36;101416.84;5035839;28;20056;-80
2023/06/12 00:27:44;;;;;;;7.95;4.32;;;;;;;21.03;43.47;101414.41;5031955;28;20025;-80
2023/06/12 00:30:10;;;;;;;5.38;4.47;;;;;;;21.01;43.67;101412.81;5028537;28;20039;-80
2023/06/12 00:32:35;;;;;;;6.25;4.45;;;;;;;20.99;43.13;101417.34;5026116;28;20038;-80
2023/06/12 00:35:01;;;;;;;6.38;4.40;;;;;;;20.94;43.86;101409.69;5032234;28;20021;-80
2023/06/12 00:37:27;;;;;;;7.50;4.78;;;;;;;20.90;43.50;101408.16;5030343;28;20047;-80
2023/06/12 00:39:53;;;;;;;6.05;4.88;;;;;;;20.90;43.28;101413.44;5034112;28;20025;-80
2023/06/12 00:42:20;;;;;;;5.03;4.30;;;;;;;20.87;43.40;101421.56;5030366;28;20033;-80
2023/06/12 00:44:45;;;;;;;6.70;4.40;;;;;;;20.84;43.67;101419.09;5029563;28;20034;-80
2023/06/12 00:47:11;;;;;;;5.25;4.10;;;;;;;20.82;43.70;101415.72;5029838;28;20088;-80
2023/06/12 00:49:36;;;;;;;5.40;4.40;;;;;;;20.79;44.05;101415.91;5026991;28;20022;-80
2023/06/12 00:52:02;;;;;;;6.20;4.35;;;;;;;20.75;43.99;101410.78;5030013;28;20087;-80
2023/06/12 00:54:28;;;;;;;6.97;4.60;;;;;;;20.72;44.04;101412.75;5030257;28;20088;-80
2023/06/12 00:56:56;;;;;;;5.45;4.47;;;;;;;20.69;44.03;101415.56;5031424;28;20045;-80
2023/06/12 00:59:23;;;;;;;6.63;4.40;;;;;;;20.63;46.76;101417.63;5030636;28;20041;-80
2023/06/12 01:01:48;;;;;;;5.72;4.63;;;;;;;20.60;44.84;101411.66;5031012;28;20025;-80
2023/06/12 01:04:14;;;;;;;5.60;4.38;;;;;;;20.58;44.31;101405.63;5028867;28;20542;-80
2023/06/12 01:06:47;;;;;;;6.28;4.55;;;;;;;20.55;45.03;101411.94;5031679;28;20029;-80
2023/06/12 01:09:38;;;;;;;6.68;4.80;;;;;;;20.55;44.09;101411.09;5030296;28;20022;-80
2023/06/12 01:12:05;;;;;;;;;;;;;;;20.57;43.65;101410.06;5026213;28;20449;-80
2023/06/12 01:14:31;;;;;;;4.80;4.13;;;;;;;20.47;44.30;101408.91;5028687;28;19920;-80
2023/06/12 01:17:01;;;;;;;6.32;4.65;;;;;;;20.42;45.04;101403.88;5030748;28;20021;-80
2023/06/12 01:19:27;;;;;;;5.40;4.47;;;;;;;20.40;45.16;101411.03;5028108;28;20108;-80
2023/06/12 01:21:58;;;;;;;8.45;4.60;;;;;;;20.37;45.31;101403.28;5031667;28;20435;-80
2023/06/12 01:25:14;;;;;;;6.18;4.88;;;;;;;20.36;44.84;101414.81;5028548;28;20034;-80
2023/06/12 01:27:58;;;;;;;6.05;4.57;;;;;;;20.31;44.97;101412.44;4988572;28;20490;-80
2023/06/12 01:30:49;;;;;;;5.45;4.38;;;;;;;20.30;44.53;101416.00;4987526;28;20042;-80
2023/06/12 01:33:17;;;;;;;5.55;4.75;;;;;;;20.26;45.30;101418.94;5018854;28;20075;-81
2023/06/12 01:35:46;;;;;;;5.30;4.53;;;;;;;20.21;45.22;101415.69;5030941;28;20026;-80
2023/06/12 01:38:23;;;;;;;5.47;4.32;;;;;;;20.19;45.30;101420.22;5030128;28;20048;-80
2023/06/12 01:40:50;;;;;;;7.30;4.85;;;;;;;20.16;45.90;101418.59;5028014;28;20083;-80
2023/06/12 01:43:15;;;;;;;6.53;4.57;;;;;;;20.13;45.86;101419.63;5036080;28;20053;-80
2023/06/12 01:45:41;;;;;;;5.45;4.35;;;;;;;20.09;45.68;101412.81;5030390;28;20069;-80
2023/06/12 01:48:07;;;;;;;6.38;5.07;;;;;;;20.06;45.91;101418.28;5028775;28;20029;-80
2023/06/12 01:50:32;;;;;;;5.63;4.45;;;;;;;20.02;47.56;101419.38;5028526;28;20025;-80
2023/06/12 01:52:57;;;;;;;6.38;4.72;;;;;;;19.98;45.99;101415.22;5031058;28;20481;-80
2023/06/12 01:55:24;;;;;;;5.53;4.60;;;;;;;19.95;46.85;101423.31;5026999;28;20021;-80
2023/06/12 01:57:50;;;;;;;5.95;4.63;;;;;;;19.92;47.28;101426.13;5028275;28;20057;-81
2023/06/12 02:00:17;;;;;;;6.50;4.47;;;;;;;19.90;46.25;101420.06;5027658;28;20033;-80
2023/06/12 02:02:43;;;;;;;8.25;5.00;;;;;;;19.84;46.59;101422.09;5031242;28;20079;-81
2023/06/12 02:05:09;;;;;;;5.45;4.43;;;;;;;19.81;47.09;101418.78;5029007;28;20029;-81
2023/06/12 02:07:34;;;;;;;5.95;4.75;;;;;;;19.77;46.90;101414.59;5029010;28;20025;-81
2023/06/12 02:09:59;;;;;;;7.35;5.28;;;;;;;19.73;46.58;101416.56;5033198;28;20022;-80
2023/06/12 02:12:25;;;;;;;6.40;5.05;;;;;;;19.70;47.16;101417.59;5031212;28;20021;-80
2023/06/12 02:14:50;;;;;;;6.47;4.90;;;;;;;19.68;47.45;101421.22;5033046;28;20096;-80
2023/06/12 02:17:17;;;;;;;6.30;5.05;;;;;;;19.63;47.99;101412.72;5033419;28;20032;-80
2023/06/12 02:19:43;;;;;;;7.80;5.55;;;;;;;19.56;51.81;101415.69;5034704;28;20029;-80
2023/06/12 02:22:08;;;;;;;6.72;4.97;;;;;;;19.50;50.07;101416.03;5032417;28;20036;-80
2023/06/12 02:24:35;;;;;;;7.43;5.15;;;;;;;19.45;47.99;101415.44;5033197;28;20029;-80
2023/06/12 02:27:01;;;;;;;6.20;4.93;;;;;;;19.40;48.42;101412.19;5034354;28;20049;-80
2023/06/12 02:29:26;;;;;;;6.70;4.63;;;;;;;19.38;48.41;101411.41;5032436;28;20048;-80
2023/06/12 02:31:51;;;;;;;7.30;4.95;;;;;;;19.35;48.78;101414.22;5033736;28;20095;-80
2023/06/12 02:34:16;;;;;;;8.30;5.25;;;;;;;19.31;49.40;101412.66;5031465;28;20013;-80
2023/06/12 02:36:42;;;;;;;6.03;5.38;;;;;;;19.26;48.82;101413.78;5034321;28;20472;-80
2023/06/12 02:39:09;;;;;;;7.45;5.47;;;;;;;19.25;48.51;101413.84;5030799;28;20025;-80
2023/06/12 02:41:38;;;;;;;6.30;5.20;;;;;;;19.23;48.96;101413.06;5031719;28;20033;-81
2023/06/12 02:44:03;;;;;;;6.28;5.10;;;;;;;19.21;48.70;101413.16;5032051;28;20040;-80
2023/06/12 02:46:29;;;;;;;7.68;5.28;;;;;;;19.19;48.56;101412.41;5032391;28;20025;-80
2023/06/12 02:48:54;;;;;;;7.95;5.18;;;;;;;19.17;48.91;101413.44;5029754;28;20087;-80
2023/06/12 02:51:19;;;;;;;7.18;5.47;;;;;;;19.14;48.96;101414.41;5032532;28;20032;-80
2023/06/12 02:53:44;;;;;;;7.47;5.43;;;;;;;19.11;48.92;101411.97;5030768;28;20092;-80
2023/06/12 02:56:10;;;;;;;7.07;5.63;;;;;;;19.10;49.12;101410.25;5032683;28;20044;-80
2023/06/12 02:58:35;;;;;;;8.00;5.63;;;;;;;19.06;49.21;101406.91;5031910;28;20029;-80
2023/06/12 03:01:02;;;;;;;7.75;5.93;;;;;;;19.02;48.94;101407.16;5032886;28;20033;-80
2023/06/12 03:03:29;;;;;;;6.35;5.20;;;;;;;19.01;49.27;101413.38;5030454;28;20040;-80
2023/06/12 03:05:54;;;;;;;8.13;5.28;;;;;;;18.96;49.61;101406.53;5031300;28;20082;-80
2023/06/12 03:08:19;;;;;;;7.55;5.25;;;;;;;18.96;49.60;101411.81;5032205;28;20021;-80
2023/06/12 03:10:45;;;;;;;9.00;5.55;;;;;;;18.94;49.70;101410.16;5032218;28;20108;-80
2023/06/12 03:13:12;;;;;;;7.70;5.85;;;;;;;18.89;50.15;101407.78;5030945;28;20179;-80
2023/06/12 03:15:37;;;;;;;8.05;5.72;;;;;;;18.87;49.80;101404.38;5031650;28;20025;-80
2023/06/12 03:18:03;;;;;;;7.82;6.15;;;;;;;18.86;49.87;101415.00;5032231;28;20025;-81
2023/06/12 03:20:28;;;;;;;7.43;5.38;;;;;;;18.84;50.53;101412.44;5029934;28;20061;-81
2023/06/12 03:22:53;;;;;;;7.10;5.85;;;;;;;18.79;50.23;101415.31;5031236;28;20075;-80
2023/06/12 03:25:19;;;;;;;8.07;6.10;;;;;;;18.78;50.65;101412.75;5030978;28;20492;-80
2023/06/12 03:27:45;;;;;;;6.63;5.90;;;;;;;18.75;50.51;101415.56;5028695;28;20083;-80
2023/06/12 03:30:11;;;;;;;8.80;5.93;;;;;;;18.73;50.53;101410.34;5026890;28;20376;-80
2023/06/12 03:32:36;;;;;;;8.02;5.95;;;;;;;18.71;50.40;101411.34;5031188;28;20025;-80
2023/06/12 03:35:02;;;;;;;9.95;6.30;;;;;;;18.67;50.79;101410.66;5031367;28;20041;-80
2023/06/12 03:37:28;;;;;;;7.57;6.18;;;;;;;18.64;51.25;101411.66;5028217;28;20022;-80
2023/06/12 03:39:53;;;;;;;8.80;5.82;;;;;;;18.61;50.78;101417.09;5030909;28;20108;-80
2023/06/12 03:42:19;;;;;;;10.30;6.13;;;;;;;18.61;50.82;101417.09;5028244;28;20029;-80
2023/06/12 03:44:44;;;;;;;8.00;5.63;;;;;;;18.60;51.07;101415.41;5037264;28;20021;-80
2023/06/12 03:47:11;;;;;;;7.90;5.78;;;;;;;18.59;50.85;101416.34;5031006;28;20034;-80
2023/06/12 03:49:37;;;;;;;7.60;5.93;;;;;;;18.56;51.78;101416.47;5028799;28;20049;-80
2023/06/12 03:52:03;;;;;;;7.70;5.80;;;;;;;18.55;51.71;101424.44;5032046;28;20476;-80
2023/06/12 03:54:29;;;;;;;8.80;5.95;;;;;;;18.52;51.66;101420.19;5031427;28;20025;-80
2023/06/12 03:56:54;;;;;;;8.35;5.97;;;;;;;18.51;51.78;101426.38;5027539;28;20049;-81
2023/06/12 03:59:19;;;;;;;9.10;5.90;;;;;;;18.47;51.70;101414.28;5030317;28;20060;-81
2023/06/12 04:01:45;;;;;;;8.55;5.75;;;;;;;18.46;51.84;101421.34;5029963;28;20037;-80
2023/06/12 04:04:11;;;;;;;7.53;5.63;;;;;;;18.46;52.20;101424.00;5030571;28;20021;-80
2023/06/12 04:06:40;;;;;;;7.90;6.07;;;;;;;18.45;52.36;101426.69;5027907;28;20457;-80
2023/06/12 04:09:07;;;;;;;10.98;6.72;;;;;;;18.44;52.05;101430.28;5030472;28;20108;-80
2023/06/12 04:11:34;;;;;;;9.13;5.68;;;;;;;18.46;51.67;101431.03;5031591;28;20021;-80
2023/06/12 04:14:00;;;;;;;7.45;5.93;;;;;;;18.47;51.97;101435.38;5030031;28;20029;-80
2023/06/12 04:16:26;;;;;;;8.40;6.13;;;;;;;18.47;52.13;101435.38;5031141;28;20029;-81
2023/06/12 04:18:52;;;;;;;9.68;6.25;;;;;;;18.50;51.82;101435.22;5031039;28;20029;-80
2023/06/12 04:21:18;;;;;;;8.68;5.93;;;;;;;18.53;52.24;101442.97;5032439;28;20024;-80
2023/06/12 04:23:47;;;;;;;8.30;6.13;;;;;;;18.53;54.13;101440.34;5032381;28;20021;-80
2023/06/12 04:26:14;;;;;;;7.13;5.95;;;;;;;18.54;52.51;101441.19;5030955;28;20484;-80
2023/06/12 04:28:41;;;;;;;8.43;6.53;;;;;;;18.54;53.63;101442.06;5031465;28;20377;-81
2023/06/12 04:31:06;;;;;;;6.63;5.93;;;;;;;18.56;52.32;101447.22;5030641;28;20024;-80
2023/06/12 04:33:35;;;;;;;7.57;6.18;;;;;;;18.58;52.49;101446.25;5028538;28;20034;-80
2023/06/12 04:36:02;;;;;;;7.40;6.05;;;;;;;18.60;52.22;101444.38;5030606;28;20031;-80
2023/06/12 04:38:30;;;;;;;7.20;6.00;;;;;;;18.65;52.54;101444.16;5033514;28;20021;-80
2023/06/12 04:40:58;;;;;;;7.55;6.18;;;;;;;18.66;53.67;101441.44;5029118;28;20045;-80
2023/06/12 04:43:23;;;;;;;7.78;6.05;;;;;;;18.70;52.47;101446.56;5030989;28;20103;-80
2023/06/12 04:45:49;;;;;;;7.78;6.43;;;;;;;18.70;54.47;101443.91;5028153;28;20069;-80
2023/06/12 04:48:15;;;;;;;8.95;6.65;;;;;;;18.70;54.48;101441.28;5030885;28;20033;-81
2023/06/12 04:50:40;;;;;;;8.50;5.78;;;;;;;18.70;56.13;101442.16;5029367;28;20484;-80
2023/06/12 04:53:06;;;;;;;8.45;6.03;;;;;;;18.72;54.51;101434.16;5029021;28;20108;-80
2023/06/12 04:55:32;;;;;;;6.43;5.65;;;;;;;18.74;55.54;101441.03;5029587;28;20036;-80
2023/06/12 04:57:59;;;;;;;8.18;5.78;;;;;;;18.77;56.04;101442.69;5029987;28;20045;-80
2023/06/12 05:00:25;;;;;;;8.50;6.07;;;;;;;18.77;55.60;101442.69;5026471;28;20351;-81
2023/06/12 05:02:53;;;;;;;7.18;5.82;;;;;;;18.77;55.34;101443.53;5026669;28;20021;-81
2023/06/12 05:05:19;;;;;;;7.60;5.93;;;;;;;18.80;55.29;101442.50;5026383;28;20484;-81
2023/06/12 05:07:45;;;;;;;9.23;5.78;;;;;;;18.83;55.54;101442.34;5027644;28;20048;-80
2023/06/12 05:10:12;;;;;;;18.40;6.68;;;;;;;18.86;56.82;101451.91;5026276;28;20036;-81
2023/06/12 05:12:38;;;;;;;16.85;6.68;;;;;;;18.90;55.77;101453.44;5025348;28;20536;-80
2023/06/12 05:15:03;;;;;;;10.45;6.22;;;;;;;18.93;52.69;101454.16;5038899;28;20112;-80
2023/06/12 05:17:28;;;;;;;12.27;6.07;;;;;;;18.98;56.55;101450.44;5029005;28;20033;-80
2023/06/12 05:19:54;;;;;;;8.05;5.95;;;;;;;19.00;55.57;101452.09;5027273;28;20041;-81
2023/06/12 05:22:19;;;;;;;10.05;5.82;;;;;;;19.04;54.27;101450.13;5028448;28;20025;-80
2023/06/12 05:24:45;;;;;;;8.25;5.88;;;;;;;19.07;56.03;101445.53;5033743;28;20060;-81
2023/06/12 05:27:10;;;;;;;8.23;5.63;;;;;;;19.14;53.35;101446.06;5027748;28;20068;-81
2023/06/12 05:29:36;;;;;;;6.68;5.53;;;;;;;19.22;53.06;101446.53;5032112;28;20477;-81
2023/06/12 05:32:01;;;;;;;9.90;5.65;;;;;;;19.31;52.73;101446.97;5027845;28;20021;-81
2023/06/12 05:34:27;;;;;;;8.82;5.40;;;;;;;19.40;53.26;101446.50;5026337;28;20032;-81
2023/06/12 05:36:54;;;;;;;6.88;5.55;;;;;;;19.48;52.09;101443.44;5030394;28;20037;-81
2023/06/12 05:39:19;;;;;;;7.63;5.60;;;;;;;19.60;55.32;101441.94;5030850;28;20033;-81
2023/06/12 05:41:45;;;;;;;7.60;5.25;;;;;;;19.67;52.66;101451.19;5029890;28;20027;-81
2023/06/12 05:44:10;;;;;;;7.13;5.18;;;;;;;19.74;51.85;101436.75;5030120;28;20028;-81
2023/06/12 05:46:35;;;;;;;7.40;5.13;;;;;;;19.83;53.25;101438.03;5030503;28;20109;-81
2023/06/12 05:49:01;;;;;;;8.00;5.10;;;;;;;19.93;51.79;101446.31;5033331;28;20369;-81
2023/06/12 05:51:27;;;;;;;11.23;5.50;;;;;;;20.00;51.95;101442.38;5035451;28;20081;-80
2023/06/12 05:53:53;;;;;;;7.15;4.95;;;;;;;20.05;52.40;101439.50;5035159;28;20025;-81
2023/06/12 05:56:18;;;;;;;7.20;5.43;;;;;;;20.09;51.87;101435.72;5032231;28;20053;-81
2023/06/12 05:58:44;;;;;;;7.60;5.07;;;;;;;20.13;53.15;101440.78;5033016;28;20112;-81
2023/06/12 06:01:11;;;;;;;7.25;4.95;;;;;;;20.19;53.20;101443.97;5031829;28;20030;-81
2023/06/12 06:03:42;;;;;;;7.25;5.13;;;;;;;20.21;53.27;101437.69;5032604;28;20029;-80
2023/06/12 06:06:13;;;;;;;8.05;5.10;;;;;;;20.28;50.45;101444.31;5027919;28;20037;-80
2023/06/12 06:08:38;;;;;;;7.80;5.72;;;;;;;20.34;50.19;101443.09;5030096;28;20029;-81
2023/06/12 06:11:04;;;;;;;7.30;5.15;;;;;;;20.39;51.80;101446.34;5033991;28;20040;-81
2023/06/12 06:13:29;;;;;;;5.85;4.63;;;;;;;20.45;49.30;101440.72;5032529;28;20057;-81
2023/06/12 06:15:54;;;;;;;6.82;4.68;;;;;;;20.55;50.52;101443.66;5034385;28;20480;-81
2023/06/12 06:18:20;;;;;;;8.77;4.88;;;;;;;20.63;49.76;101438.78;5032716;28;20494;-80
2023/06/12 06:20:45;;;;;;;5.25;4.30;;;;;;;20.71;48.09;101446.25;5032736;28;20036;-81
2023/06/12 06:23:10;;;;;;;6.05;4.40;;;;;;;20.84;50.16;101453.47;5033862;28;20075;-81
2023/06/12 06:25:36;;;;;;;6.20;4.85;;;;;;;20.90;50.49;101445.19;5033055;28;20025;-80
2023/06/12 06:28:01;;;;;;;7.90;4.90;;;;;;;20.97;50.90;101451.81;5033368;28;20021;-80
2023/06/12 06:30:26;;;;;;;7.28;4.28;;;;;;;21.04;48.07;101450.50;5031431;28;20384;-80
2023/06/12 06:32:52;;;;;;;6.70;4.25;;;;;;;21.13;51.64;101437.66;5028815;28;20084;-81
2023/06/12 06:35:17;;;;;;;5.82;4.60;;;;;;;21.21;48.42;101443.31;5033366;28;20464;-80
2023/06/12 06:37:42;;;;;;;5.95;4.32;;;;;;;21.32;48.51;101445.31;5031107;28;20495;-81
2023/06/12 06:40:09;;;;;;;7.50;4.30;;;;;;;21.40;47.56;101447.47;5034398;28;20021;-80
2023/06/12 06:42:34;;;;;;;6.65;4.18;;;;;;;21.45;49.53;101443.59;5029234;28;20496;-80
2023/06/12 06:44:59;;;;;;;6.53;4.38;;;;;;;21.51;48.48;101440.56;5031592;28;20030;-80
2023/06/12 06:47:25;;;;;;;5.45;4.60;;;;;;;21.60;46.26;101449.78;5046694;28;20017;-78
2023/06/12 06:49:50;;;;;;;8.00;4.78;;;;;;;21.67;45.66;101445.81;5042558;28;20024;-79
2023/06/12 06:52:18;;;;;;;7.07;4.80;;;;;;;21.76;45.61;101451.44;5034712;28;20061;-79
2023/06/12 06:54:43;;;;;;;7.43;4.60;;;;;;;21.79;46.96;101443.31;5035092;28;20033;-80
2023/06/12 06:57:10;;;;;;;7.90;4.85;;;;;;;21.84;45.27;101451.81;5044664;28;20053;-79
2023/06/12 06:59:36;;;;;;;7.25;4.90;;;;;;;21.90;47.14;101445.28;5055000;28;20029;-79
2023/06/12 07:02:02;;;;;;;5.10;4.30;;;;;;;21.94;48.01;101446.78;5034884;28;20025;-80
2023/06/12 07:04:27;;;;;;;7.45;4.07;;;;;;;22.01;46.70;101450.72;5035566;28;20044;-79
2023/06/12 07:06:52;;;;;;;7.28;4.45;;;;;;;22.06;44.72;101440.69;5040071;28;20023;-79
2023/06/12 07:09:18;;;;;;;5.30;4.18;;;;;;;22.15;46.78;101444.53;5030218;28;20072;-79
2023/06/12 07:11:44;;;;;;;6.95;4.53;;;;;;;22.22;45.57;101447.63;5032922;28;20028;-80
2023/06/12 07:14:09;;;;;;;8.15;5.10;;;;;;;22.28;46.97;101439.28;5035167;28;20036;-80
2023/06/12 07:16:34;;;;;;;7.10;4.90;;;;;;;22.34;45.45;101432.72;5033631;28;20021;-79
2023/06/12 07:18:59;;;;;;;6.35;4.53;;;;;;;22.41;44.72;101434.88;5033433;28;20026;-80
2023/06/12 07:21:26;;;;;;;6.47;4.47;;;;;;;22.48;44.58;101429.16;5035406;28;20021;-80
2023/06/12 07:23:52;;;;;;;7.88;4.78;;;;;;;22.55;44.39;101430.47;5031401;28;20025;-80
2023/06/12 07:26:18;;;;;;;6.50;4.63;;;;;;;22.64;44.30;101431.66;5030160;28;20102;-80
2023/06/12 07:28:43;;;;;;;6.15;4.38;;;;;;;22.69;44.25;101435.69;5031535;28;20029;-80
2023/06/12 07:31:08;;;;;;;7.22;4.40;;;;;;;22.76;44.67;101433.44;5037826;28;20472;-80
2023/06/12 07:33:33;;;;;;;5.25;4.43;;;;;;;22.84;44.12;101432.94;5044194;28;20021;-80
2023/06/12 07:35:59;;;;;;;6.18;4.30;;;;;;;22.92;44.86;101435.91;5031462;28;20120;-80
2023/06/12 07:38:24;;;;;;;6.03;4.35;;;;;;;22.98;44.20;101437.28;5031162;28;20025;-80
2023/06/12 07:40:49;;;;;;;5.72;4.18;;;;;;;23.02;45.06;101439.63;5030939;28;20552;-79
2023/06/12 07:43:15;;;;;;;6.20;4.32;;;;;;;23.06;43.52;101440.25;5032733;28;20041;-79
2023/06/12 07:45:40;;;;;;;6.45;4.35;;;;;;;23.09;42.22;101432.09;5032557;28;20496;-79
2023/06/12 07:48:07;;;;;;;6.38;4.50;;;;;;;23.13;42.33;101435.41;5032725;28;20029;-79
2023/06/12 07:50:32;;;;;;;6.63;4.53;;;;;;;23.15;42.09;101436.97;5031796;28;20400;-80
2023/06/12 07:52:57;;;;;;;7.18;4.53;;;;;;;23.19;43.86;101429.63;5032173;28;20021;-80
2023/06/12 07:55:22;;;;;;;5.70;4.28;;;;;;;23.23;41.92;101425.00;5030094;28;20361;-80
2023/06/12 07:57:49;;;;;;;6.25;4.40;;;;;;;23.27;43.70;101431.78;5031371;28;20160;-80
2023/06/12 08:00:15;;;;;;;5.55;4.40;;;;;;;23.32;42.83;101427.00;5031550;28;20025;-80
2023/06/12 08:02:40;;;;;;;5.63;4.28;;;;;;;23.35;42.67;101432.09;5030047;28;20044;-79
2023/06/12 08:05:06;;;;;;;6.03;4.30;;;;;;;23.40;43.54;101435.25;5030686;28;20063;-80
2023/06/12 08:07:33;;;;;;;6.22;4.25;;;;;;;23.44;42.04;101428.78;5023965;28;20021;-80
2023/06/12 08:09:58;;;;;;;5.13;4.20;;;;;;;23.49;41.91;101431.97;5031164;28;20018;-80
2023/06/12 08:12:23;;;;;;;7.65;4.63;;;;;;;23.55;42.29;101427.19;5026706;28;20123;-80
2023/06/12 08:14:49;;;;;;;5.53;4.28;;;;;;;23.57;42.18;101423.44;5026809;28;20472;-80
2023/06/12 08:17:14;;;;;;;6.53;4.57;;;;;;;23.61;41.76;101421.41;5031005;28;20034;-80
2023/06/12 08:19:41;;;;;;;5.97;4.15;;;;;;;23.68;41.92;101421.81;5029893;28;20140;-79
2023/06/12 08:22:07;;;;;;;4.90;4.20;;;;;;;23.72;41.22;101416.19;5027941;28;20156;-80
2023/06/12 08:24:33;;;;;;;6.05;4.22;;;;;;;23.78;43.36;101426.34;5020586;28;20041;-80
2023/06/12 08:26:59;;;;;;;5.13;4.30;;;;;;;23.82;41.56;101426.13;5029224;28;20018;-80
2023/06/12 08:29:25;;;;;;;5.63;4.55;;;;;;;23.85;43.44;101410.81;5029957;28;20557;-80
2023/06/12 08:31:50;;;;;;;5.90;4.63;;;;;;;23.88;43.84;101415.06;5028437;28;20078;-80
2023/06/12 08:34:15;;;;;;;5.60;4.38;;;;;;;23.93;42.82;101412.91;5028152;28;20494;-80
2023/06/12 08:36:41;;;;;;;7.03;4.88;;;;;;;24.00;42.24;101419.50;5029595;28;20041;-80
2023/06/12 08:39:06;;;;;;;7.88;4.55;;;;;;;24.06;41.67;101413.75;5024654;28;20437;-79
2023/06/12 08:41:34;;;;;;;5.65;4.43;;;;;;;24.14;42.94;101420.28;5031212;28;20037;-80
2023/06/12 08:44:00;;;;;;;6.05;4.47;;;;;;;24.17;41.10;101409.44;5023623;28;20027;-79
2023/06/12 08:46:29;;;;;;;7.07;4.50;;;;;;;24.22;40.26;101409.94;5027184;28;20391;-80
2023/06/12 08:48:55;;;;;;;5.75;4.28;;;;;;;24.28;41.08;101405.97;5022727;28;20235;-80
2023/06/12 08:51:22;;;;;;;9.38;4.53;;;;;;;24.35;40.98;101413.38;5026041;28;20037;-80
2023/06/12 08:53:47;;;;;;;6.43;4.53;;;;;;;24.46;42.27;101412.56;5029742;28;20076;-81
2023/06/12 08:56:13;;;;;;;5.63;4.25;;;;;;;24.53;42.47;101416.44;5027552;28;20029;-80
2023/06/12 08:58:39;;;;;;;8.07;4.20;;;;;;;24.58;42.22;101413.44;5026222;28;20025;-82
2023/06/12 09:01:06;;;;;;;5.00;4.18;;;;;;;24.62;42.13;101406.91;5023697;28;20166;-81
2023/06/12 09:03:35;;;;;;;6.63;4.10;;;;;;;24.66;42.00;101403.03;5025785;28;20030;-80
2023/06/12 09:06:05;;;;;;;7.80;4.20;;;;;;;24.70;40.41;101406.34;5027845;28;20033;-81
2023/06/12 09:08:31;;;;;;;6.63;4.40;;;;;;;24.76;39.87;101399.72;5028789;28;20025;-80
2023/06/12 09:10:58;;;;;;;6.03;4.28;;;;;;;24.77;39.12;101396.94;5033786;28;20029;-80
2023/06/12 09:13:23;;;;;;;8.35;4.10;;;;;;;24.84;40.76;101403.47;5029614;28;20144;-83
2023/06/12 09:15:50;;;;;;;6.63;4.30;;;;;;;24.89;40.67;101400.47;5028126;28;20048;-81
2023/06/12 09:18:18;;;;;;;6.13;4.65;;;;;;;24.94;39.96;101392.94;5026654;28;20040;-81
2023/06/12 09:20:44;;;;;;;6.35;4.50;;;;;;;24.99;39.79;101388.09;5031020;28;20555;-80
2023/06/12 09:23:11;;;;;;;5.75;4.45;;;;;;;25.03;39.67;101390.53;5031068;28;20033;-81
2023/06/12 09:25:39;;;;;;;6.18;4.40;;;;;;;25.13;41.11;101388.81;5037456;28;20100;-81
2023/06/12 09:28:07;;;;;;;5.78;4.43;;;;;;;25.20;40.66;101382.06;5027482;28;20116;-81
2023/06/12 09:30:32;;;;;;;6.07;4.82;;;;;;;25.25;39.43;101390.53;5032675;28;20021;-81
2023/06/12 09:33:01;;;;;;;5.82;4.60;;;;;;;25.25;39.20;101379.88;5041246;28;20361;-81
2023/06/12 09:35:26;;;;;;;6.05;4.28;;;;;;;25.28;39.42;101392.94;5037694;28;20026;-81
2023/06/12 09:37:52;;;;;;;5.47;4.47;;;;;;;25.32;41.30;101388.22;5027775;28;20037;-81
2023/06/12 09:40:18;;;;;;;6.00;4.40;;;;;;;25.36;40.83;101397.66;5031193;28;20029;-81
2023/06/12 09:42:45;;;;;;;5.05;4.38;;;;;;;25.39;38.47;101392.06;5039968;28;20081;-80
2023/06/12 09:45:20;;;;;;;5.95;4.45;;;;;;;25.45;38.57;101386.28;5026337;28;20071;-79
2023/06/12 09:47:47;;;;;;;7.10;4.72;;;;;;;25.52;39.12;101378.66;5030519;28;20033;-80
2023/06/12 09:50:14;;;;;;;5.75;4.20;;;;;;;25.59;40.17;101390.50;5031966;28;20108;-80
2023/06/12 09:52:41;;;;;;;6.05;4.40;;;;;;;25.66;38.86;101388.19;5041870;28;20392;-80
2023/06/12 09:55:08;;;;;;;7.63;4.15;;;;;;;25.71;37.70;101391.31;5031059;28;21010;-80
2023/06/12 09:57:37;;;;;;;6.43;4.63;;;;;;;25.73;38.17;101383.22;5028422;28;20057;-79
2023/06/12 10:00:08;;;;;;;6.20;4.60;;;;;;;25.72;38.31;101394.84;5020674;28;20872;-79
2023/06/12 10:02:35;;;;;;;8.57;4.13;;;;;;;25.67;36.89;101383.69;5024313;28;20090;-80
2023/06/12 10:05:10;;;;;;;5.15;4.00;;;;;;;25.65;37.73;101396.28;5023398;28;20018;-80
2023/06/12 10:07:51;;;;;;;6.28;4.20;;;;;;;25.65;38.06;101390.97;5025344;28;20083;-80
2023/06/12 10:10:18;;;;;;;6.85;4.38;;;;;;;25.66;39.21;101387.31;5024130;28;20465;-81
2023/06/12 10:12:44;;;;;;;5.72;4.20;;;;;;;25.69;38.71;101393.28;5020723;28;20100;-80
2023/06/12 10:15:11;;;;;;;7.47;4.13;;;;;;;25.72;38.26;101386.84;5027726;28;20124;-82
2023/06/12 10:17:38;;;;;;;5.20;4.07;;;;;;;25.75;36.76;101381.25;5019636;28;20625;-80
2023/06/12 10:20:06;;;;;;;5.30;4.20;;;;;;;25.81;38.72;101386.06;5026612;28;20053;-80
2023/06/12 10:22:32;;;;;;;6.55;4.40;;;;;;;25.84;35.79;101377.81;5024808;28;20029;-80
2023/06/12 10:24:58;;;;;;;9.82;4.40;;;;;;;25.87;36.99;101379.41;5033004;28;20029;-80
2023/06/12 10:27:25;;;;;;;6.03;4.20;;;;;;;25.90;37.37;101380.00;5027670;28;20037;-79
2023/06/12 10:29:58;;;;;;;8.10;4.90;;;;;;;25.94;37.24;101377.91;5022718;28;20056;-80
2023/06/12 10:32:24;;;;;;;5.22;4.13;;;;;;;25.95;36.90;101376.94;5029464;28;20566;-80
2023/06/12 10:34:53;;;;;;;6.30;4.25;;;;;;;25.97;38.19;101384.81;5026225;28;20024;-81
2023/06/12 10:37:27;;;;;;;5.47;4.10;;;;;;;25.97;37.33;101374.13;5025848;28;20021;-80
2023/06/12 10:40:12;;;;;;;7.63;4.43;;;;;;;25.99;37.99;101374.84;5022878;28;20041;-81
2023/06/12 10:43:01;;;;;;;6.50;4.47;;;;;;;26.03;38.01;101365.63;5022759;28;20037;-80
2023/06/12 10:45:29;;;;;;;6.75;4.20;;;;;;;26.08;37.58;101366.09;5028651;28;20052;-80
2023/06/12 10:48:06;;;;;;;7.43;4.50;;;;;;;26.12;37.74;101367.59;5026157;28;20036;-81
2023/06/12 10:50:34;;;;;;;6.78;4.78;;;;;;;26.13;37.74;101353.25;5028663;28;20033;-80
2023/06/12 10:53:01;;;;;;;5.05;4.25;;;;;;;26.15;37.66;101361.97;5031671;28;20025;-80
2023/06/12 10:55:26;;;;;;;6.32;4.70;;;;;;;26.17;37.78;101352.03;5034708;28;20380;-80
2023/06/12 10:57:56;;;;;;;5.60;4.47;;;;;;;26.19;38.08;101355.41;5026480;28;20046;-80
2023/06/12 11:00:23;;;;;;;5.05;4.50;;;;;;;26.23;37.99;101358.66;5030093;28;20908;-82
2023/06/12 11:03:00;;;;;;;5.30;4.60;;;;;;;26.26;38.90;101362.91;5026172;28;20025;-81
2023/06/12 11:05:27;;;;;;;4.53;3.97;;;;;;;26.28;38.73;101360.97;5024894;28;20037;-81
2023/06/12 11:08:00;;;;;;;6.00;4.63;;;;;;;26.26;36.79;101352.22;5025540;28;20037;-79
2023/06/12 11:10:26;;;;;;;5.88;4.60;;;;;;;26.23;35.92;101347.97;5025559;28;20052;-79
2023/06/12 11:12:52;;;;;;;4.80;4.30;;;;;;;26.24;37.20;101348.84;5024441;28;20108;-79
2023/06/12 11:15:18;;;;;;;5.55;4.50;;;;;;;26.26;35.96;101342.41;5024778;28;20140;-80
2023/06/12 11:17:43;;;;;;;5.95;4.85;;;;;;;26.27;36.15;101348.59;5028727;28;20032;-80
2023/06/12 11:20:10;;;;;;;5.50;4.47;;;;;;;26.32;37.23;101357.03;5025502;28;20029;-80
2023/06/12 11:22:36;;;;;;;5.80;4.80;;;;;;;26.34;36.03;101344.41;5024178;28;20033;-80